sensor_id;sensor_type;location;lat;lon;timestamp;P1;durP1;ratioP1;P2;durP2;ratioP2
2362;SDS011;64265;51.664;7.626;2022-10-31T00:02:19;15.77;;;13.73;;
2362;SDS011;64265;51.664;7.626;2022-10-31T00:04:46;16.73;;;13.50;;
2362;SDS011;64265;51.664;7.626;2022-10-31T00:07:12;15.00;;;13.20;;
2362;SDS011;64265;51.664;7.626;2022-10-31T00:09:40;13.73;;;12.30;;
2362;SDS011;64265;51.664;7.626;2022-10-31T00:12:07;15.70;;;13.60;;
2362;SDS011;64265;51.664;7.626;2022-10-31T00:14:34;16.20;;;13.50;;
2362;SDS011;64265;51.664;7.626;2022-10-31T00:17:00;16.80;;;13.23;;
2362;SDS011;64265;51.664;7.626;2022-10-31T00:19:28;15.27;;;13.40;;
2362;SDS011;64265;51.664;7.626;2022-10-31T00:21:55;17.10;;;12.50;;
2362;SDS011;64265;51.664;7.626;2022-10-31T00:24:21;14.90;;;11.50;;
2362;SDS011;64265;51.664;7.626;2022-10-31T00:26:49;14.23;;;12.17;;
2362;SDS011;64265;51.664;7.626;2022-10-31T00:29:16;13.40;;;11.50;;
2362;SDS011;64265;51.664;7.626;2022-10-31T00:31:43;15.23;;;11.67;;
2362;SDS011;64265;51.664;7.626;2022-10-31T00:34:09;18.50;;;13.90;;
2362;SDS011;64265;51.664;7.626;2022-10-31T00:36:36;13.20;;;10.80;;
2362;SDS011;64265;51.664;7.626;2022-10-31T00:39:03;11.80;;;10.60;;
2362;SDS011;64265;51.664;7.626;2022-10-31T00:41:29;16.20;;;12.03;;
2362;SDS011;64265;51.664;7.626;2022-10-31T00:43:57;14.77;;;11.10;;
2362;SDS011;64265;51.664;7.626;2022-10-31T00:46:24;13.90;;;12.40;;
2362;SDS011;64265;51.664;7.626;2022-10-31T00:48:51;11.70;;;10.13;;
2362;SDS011;64265;51.664;7.626;2022-10-31T00:51:18;12.17;;;11.00;;
2362;SDS011;64265;51.664;7.626;2022-10-31T00:53:44;16.73;;;12.77;;
2362;SDS011;64265;51.664;7.626;2022-10-31T00:56:11;12.23;;;10.20;;
2362;SDS011;64265;51.664;7.626;2022-10-31T00:58:38;11.97;;;10.17;;
2362;SDS011;64265;51.664;7.626;2022-10-31T01:01:06;14.17;;;12.73;;
2362;SDS011;64265;51.664;7.626;2022-10-31T01:03:33;12.63;;;10.00;;
2362;SDS011;64265;51.664;7.626;2022-10-31T01:06:01;12.70;;;10.17;;
2362;SDS011;64265;51.664;7.626;2022-10-31T01:08:29;12.37;;;10.63;;
2362;SDS011;64265;51.664;7.626;2022-10-31T01:10:59;11.60;;;10.23;;
2362;SDS011;64265;51.664;7.626;2022-10-31T01:13:27;11.97;;;10.77;;
2362;SDS011;64265;51.664;7.626;2022-10-31T01:15:54;13.00;;;10.90;;
2362;SDS011;64265;51.664;7.626;2022-10-31T01:18:22;11.83;;;10.63;;
2362;SDS011;64265;51.664;7.626;2022-10-31T01:20:56;12.27;;;10.00;;
2362;SDS011;64265;51.664;7.626;2022-10-31T01:23:24;10.80;;;9.80;;
2362;SDS011;64265;51.664;7.626;2022-10-31T01:25:58;11.40;;;9.53;;
2362;SDS011;64265;51.664;7.626;2022-10-31T01:28:25;13.33;;;9.57;;
2362;SDS011;64265;51.664;7.626;2022-10-31T01:30:52;13.57;;;10.70;;
2362;SDS011;64265;51.664;7.626;2022-10-31T01:33:19;10.93;;;9.93;;
2362;SDS011;64265;51.664;7.626;2022-10-31T01:35:47;10.40;;;9.40;;
2362;SDS011;64265;51.664;7.626;2022-10-31T01:38:13;11.33;;;10.03;;
2362;SDS011;64265;51.664;7.626;2022-10-31T01:40:40;9.90;;;8.97;;
2362;SDS011;64265;51.664;7.626;2022-10-31T01:43:09;9.57;;;8.67;;
2362;SDS011;64265;51.664;7.626;2022-10-31T01:45:38;10.73;;;9.53;;
2362;SDS011;64265;51.664;7.626;2022-10-31T01:48:06;10.07;;;9.17;;
2362;SDS011;64265;51.664;7.626;2022-10-31T01:50:39;11.10;;;9.70;;
2362;SDS011;64265;51.664;7.626;2022-10-31T01:53:08;9.03;;;8.13;;
2362;SDS011;64265;51.664;7.626;2022-10-31T01:55:37;10.13;;;8.50;;
2362;SDS011;64265;51.664;7.626;2022-10-31T01:58:08;9.93;;;8.90;;
2362;SDS011;64265;51.664;7.626;2022-10-31T02:00:38;9.93;;;9.00;;
2362;SDS011;64265;51.664;7.626;2022-10-31T02:03:05;8.57;;;7.70;;
2362;SDS011;64265;51.664;7.626;2022-10-31T02:05:32;8.03;;;7.20;;
2362;SDS011;64265;51.664;7.626;2022-10-31T02:07:59;9.90;;;8.90;;
2362;SDS011;64265;51.664;7.626;2022-10-31T02:10:32;9.27;;;8.37;;
2362;SDS011;64265;51.664;7.626;2022-10-31T02:13:01;9.33;;;8.50;;
2362;SDS011;64265;51.664;7.626;2022-10-31T02:15:30;8.70;;;7.80;;
2362;SDS011;64265;51.664;7.626;2022-10-31T02:17:57;8.00;;;7.27;;
2362;SDS011;64265;51.664;7.626;2022-10-31T02:20:25;8.70;;;7.83;;
2362;SDS011;64265;51.664;7.626;2022-10-31T02:23:04;9.00;;;7.70;;
2362;SDS011;64265;51.664;7.626;2022-10-31T02:26:01;9.83;;;8.93;;
2362;SDS011;64265;51.664;7.626;2022-10-31T02:28:45;8.57;;;7.50;;
2362;SDS011;64265;51.664;7.626;2022-10-31T02:31:27;9.30;;;8.27;;
2362;SDS011;64265;51.664;7.626;2022-10-31T02:34:01;9.27;;;8.00;;
2362;SDS011;64265;51.664;7.626;2022-10-31T02:36:35;7.77;;;7.10;;
2362;SDS011;64265;51.664;7.626;2022-10-31T02:39:08;8.00;;;7.20;;
2362;SDS011;64265;51.664;7.626;2022-10-31T02:41:40;8.80;;;7.77;;
2362;SDS011;64265;51.664;7.626;2022-10-31T02:44:14;8.37;;;7.57;;
2362;SDS011;64265;51.664;7.626;2022-10-31T02:46:49;8.60;;;7.77;;
2362;SDS011;64265;51.664;7.626;2022-10-31T02:49:21;8.60;;;7.67;;
2362;SDS011;64265;51.664;7.626;2022-10-31T02:51:52;9.47;;;8.57;;
2362;SDS011;64265;51.664;7.626;2022-10-31T02:54:21;7.53;;;6.90;;
2362;SDS011;64265;51.664;7.626;2022-10-31T02:56:50;7.37;;;6.77;;
2362;SDS011;64265;51.664;7.626;2022-10-31T02:59:20;8.60;;;7.70;;
2362;SDS011;64265;51.664;7.626;2022-10-31T03:01:53;10.60;;;7.57;;
2362;SDS011;64265;51.664;7.626;2022-10-31T03:04:31;8.10;;;7.30;;
2362;SDS011;64265;51.664;7.626;2022-10-31T03:07:20;7.20;;;6.50;;
2362;SDS011;64265;51.664;7.626;2022-10-31T03:09:53;8.17;;;7.37;;
2362;SDS011;64265;51.664;7.626;2022-10-31T03:12:29;7.40;;;6.80;;
2362;SDS011;64265;51.664;7.626;2022-10-31T03:15:06;7.20;;;6.53;;
2362;SDS011;64265;51.664;7.626;2022-10-31T03:17:44;8.00;;;6.90;;
2362;SDS011;64265;51.664;7.626;2022-10-31T03:20:18;7.40;;;6.80;;
2362;SDS011;64265;51.664;7.626;2022-10-31T03:22:50;8.13;;;7.40;;
2362;SDS011;64265;51.664;7.626;2022-10-31T03:25:18;7.70;;;6.90;;
2362;SDS011;64265;51.664;7.626;2022-10-31T03:27:45;7.63;;;6.83;;
2362;SDS011;64265;51.664;7.626;2022-10-31T03:30:13;7.70;;;6.97;;
2362;SDS011;64265;51.664;7.626;2022-10-31T03:32:43;8.90;;;6.93;;
2362;SDS011;64265;51.664;7.626;2022-10-31T03:35:15;9.47;;;7.40;;
2362;SDS011;64265;51.664;7.626;2022-10-31T03:37:45;8.60;;;7.50;;
2362;SDS011;64265;51.664;7.626;2022-10-31T03:40:13;7.20;;;6.50;;
2362;SDS011;64265;51.664;7.626;2022-10-31T03:42:43;7.78;;;7.07;;
2362;SDS011;64265;51.664;7.626;2022-10-31T03:45:19;7.63;;;6.90;;
2362;SDS011;64265;51.664;7.626;2022-10-31T03:47:51;7.90;;;7.07;;
2362;SDS011;64265;51.664;7.626;2022-10-31T03:50:19;7.67;;;6.40;;
2362;SDS011;64265;51.664;7.626;2022-10-31T03:52:48;6.93;;;6.30;;
2362;SDS011;64265;51.664;7.626;2022-10-31T03:55:18;8.00;;;7.27;;
2362;SDS011;64265;51.664;7.626;2022-10-31T03:57:48;6.47;;;5.85;;
2362;SDS011;64265;51.664;7.626;2022-10-31T04:00:20;5.87;;;5.37;;
2362;SDS011;64265;51.664;7.626;2022-10-31T04:02:49;7.72;;;6.80;;
2362;SDS011;64265;51.664;7.626;2022-10-31T04:05:21;8.00;;;6.60;;
2362;SDS011;64265;51.664;7.626;2022-10-31T04:07:49;6.83;;;5.87;;
2362;SDS011;64265;51.664;7.626;2022-10-31T04:10:19;6.45;;;5.85;;
2362;SDS011;64265;51.664;7.626;2022-10-31T04:12:48;6.82;;;6.20;;
2362;SDS011;64265;51.664;7.626;2022-10-31T04:15:18;6.57;;;5.10;;
2362;SDS011;64265;51.664;7.626;2022-10-31T04:17:47;6.83;;;6.13;;
2362;SDS011;64265;51.664;7.626;2022-10-31T04:20:17;7.10;;;6.37;;
2362;SDS011;64265;51.664;7.626;2022-10-31T04:22:44;6.43;;;5.90;;
2362;SDS011;64265;51.664;7.626;2022-10-31T04:25:11;5.68;;;5.15;;
2362;SDS011;64265;51.664;7.626;2022-10-31T04:27:38;7.32;;;6.63;;
2362;SDS011;64265;51.664;7.626;2022-10-31T04:30:05;6.78;;;5.47;;
2362;SDS011;64265;51.664;7.626;2022-10-31T04:32:32;6.70;;;5.77;;
2362;SDS011;64265;51.664;7.626;2022-10-31T04:34:59;5.93;;;5.43;;
2362;SDS011;64265;51.664;7.626;2022-10-31T04:37:27;5.97;;;5.40;;
2362;SDS011;64265;51.664;7.626;2022-10-31T04:39:54;5.70;;;5.20;;
2362;SDS011;64265;51.664;7.626;2022-10-31T04:42:20;8.87;;;6.20;;
2362;SDS011;64265;51.664;7.626;2022-10-31T04:44:47;6.22;;;5.72;;
2362;SDS011;64265;51.664;7.626;2022-10-31T04:47:14;5.60;;;5.03;;
2362;SDS011;64265;51.664;7.626;2022-10-31T04:49:40;5.03;;;4.53;;
2362;SDS011;64265;51.664;7.626;2022-10-31T04:52:07;6.47;;;5.83;;
2362;SDS011;64265;51.664;7.626;2022-10-31T04:54:35;5.97;;;5.53;;
2362;SDS011;64265;51.664;7.626;2022-10-31T04:57:02;5.20;;;4.70;;
2362;SDS011;64265;51.664;7.626;2022-10-31T04:59:28;6.07;;;5.57;;
2362;SDS011;64265;51.664;7.626;2022-10-31T05:01:55;5.13;;;4.63;;
2362;SDS011;64265;51.664;7.626;2022-10-31T05:04:22;5.30;;;4.90;;
2362;SDS011;64265;51.664;7.626;2022-10-31T05:06:49;4.47;;;4.07;;
2362;SDS011;64265;51.664;7.626;2022-10-31T05:09:15;5.50;;;5.00;;
2362;SDS011;64265;51.664;7.626;2022-10-31T05:11:43;5.43;;;5.03;;
2362;SDS011;64265;51.664;7.626;2022-10-31T05:14:10;4.90;;;4.50;;
2362;SDS011;64265;51.664;7.626;2022-10-31T05:16:37;4.97;;;4.57;;
2362;SDS011;64265;51.664;7.626;2022-10-31T05:19:03;5.37;;;4.97;;
2362;SDS011;64265;51.664;7.626;2022-10-31T05:21:30;5.07;;;4.67;;
2362;SDS011;64265;51.664;7.626;2022-10-31T05:23:57;5.83;;;4.77;;
2362;SDS011;64265;51.664;7.626;2022-10-31T05:26:24;4.67;;;4.30;;
2362;SDS011;64265;51.664;7.626;2022-10-31T05:28:52;5.17;;;4.70;;
2362;SDS011;64265;51.664;7.626;2022-10-31T05:31:18;4.70;;;4.17;;
2362;SDS011;64265;51.664;7.626;2022-10-31T05:33:45;5.07;;;4.57;;
2362;SDS011;64265;51.664;7.626;2022-10-31T05:36:12;5.00;;;3.90;;
2362;SDS011;64265;51.664;7.626;2022-10-31T05:38:39;5.10;;;4.60;;
2362;SDS011;64265;51.664;7.626;2022-10-31T05:41:05;5.10;;;4.60;;
2362;SDS011;64265;51.664;7.626;2022-10-31T05:43:32;4.27;;;3.97;;
2362;SDS011;64265;51.664;7.626;2022-10-31T05:46:00;4.87;;;4.37;;
2362;SDS011;64265;51.664;7.626;2022-10-31T05:48:27;5.40;;;4.90;;
2362;SDS011;64265;51.664;7.626;2022-10-31T05:50:53;4.67;;;4.27;;
2362;SDS011;64265;51.664;7.626;2022-10-31T05:53:20;4.87;;;4.47;;
2362;SDS011;64265;51.664;7.626;2022-10-31T05:55:47;4.30;;;3.90;;
2362;SDS011;64265;51.664;7.626;2022-10-31T05:58:13;4.47;;;3.83;;
2362;SDS011;64265;51.664;7.626;2022-10-31T06:00:40;4.87;;;4.40;;
2362;SDS011;64265;51.664;7.626;2022-10-31T06:03:08;6.03;;;5.37;;
2362;SDS011;64265;51.664;7.626;2022-10-31T06:05:35;4.40;;;4.00;;
2362;SDS011;64265;51.664;7.626;2022-10-31T06:08:02;3.97;;;3.60;;
2362;SDS011;64265;51.664;7.626;2022-10-31T06:10:29;4.77;;;4.33;;
2362;SDS011;64265;51.664;7.626;2022-10-31T06:12:56;4.00;;;3.70;;
2362;SDS011;64265;51.664;7.626;2022-10-31T06:15:22;4.80;;;4.30;;
2362;SDS011;64265;51.664;7.626;2022-10-31T06:17:56;5.23;;;4.73;;
2362;SDS011;64265;51.664;7.626;2022-10-31T06:20:25;4.17;;;3.87;;
2362;SDS011;64265;51.664;7.626;2022-10-31T06:22:52;6.17;;;4.87;;
2362;SDS011;64265;51.664;7.626;2022-10-31T06:25:19;5.30;;;4.53;;
2362;SDS011;64265;51.664;7.626;2022-10-31T06:27:46;4.70;;;4.30;;
2362;SDS011;64265;51.664;7.626;2022-10-31T06:30:13;3.90;;;3.60;;
2362;SDS011;64265;51.664;7.626;2022-10-31T06:32:40;4.30;;;3.93;;
2362;SDS011;64265;51.664;7.626;2022-10-31T06:35:07;4.40;;;4.10;;
2362;SDS011;64265;51.664;7.626;2022-10-31T06:37:35;4.20;;;3.80;;
2362;SDS011;64265;51.664;7.626;2022-10-31T06:40:02;4.37;;;4.03;;
2362;SDS011;64265;51.664;7.626;2022-10-31T06:42:29;4.20;;;3.90;;
2362;SDS011;64265;51.664;7.626;2022-10-31T06:44:56;5.20;;;4.80;;
2362;SDS011;64265;51.664;7.626;2022-10-31T06:47:22;4.33;;;3.93;;
2362;SDS011;64265;51.664;7.626;2022-10-31T06:49:49;3.50;;;3.27;;
2362;SDS011;64265;51.664;7.626;2022-10-31T06:52:16;4.30;;;4.00;;
2362;SDS011;64265;51.664;7.626;2022-10-31T06:54:44;5.30;;;4.77;;
2362;SDS011;64265;51.664;7.626;2022-10-31T06:57:10;4.07;;;3.77;;
2362;SDS011;64265;51.664;7.626;2022-10-31T06:59:37;4.77;;;4.37;;
2362;SDS011;64265;51.664;7.626;2022-10-31T07:02:04;4.57;;;4.17;;
2362;SDS011;64265;51.664;7.626;2022-10-31T07:04:31;4.93;;;3.93;;
2362;SDS011;64265;51.664;7.626;2022-10-31T07:06:57;4.03;;;3.73;;
2362;SDS011;64265;51.664;7.626;2022-10-31T07:09:24;4.00;;;3.40;;
2362;SDS011;64265;51.664;7.626;2022-10-31T07:11:53;4.80;;;4.40;;
2362;SDS011;64265;51.664;7.626;2022-10-31T07:14:19;4.77;;;4.37;;
2362;SDS011;64265;51.664;7.626;2022-10-31T07:16:47;4.57;;;4.23;;
2362;SDS011;64265;51.664;7.626;2022-10-31T07:19:16;6.20;;;5.30;;
2362;SDS011;64265;51.664;7.626;2022-10-31T07:21:42;6.60;;;6.07;;
2362;SDS011;64265;51.664;7.626;2022-10-31T07:24:09;6.37;;;5.70;;
2362;SDS011;64265;51.664;7.626;2022-10-31T07:26:36;5.47;;;4.93;;
2362;SDS011;64265;51.664;7.626;2022-10-31T07:29:04;6.40;;;5.80;;
2362;SDS011;64265;51.664;7.626;2022-10-31T07:31:31;6.87;;;6.07;;
2362;SDS011;64265;51.664;7.626;2022-10-31T07:33:57;5.33;;;4.83;;
2362;SDS011;64265;51.664;7.626;2022-10-31T07:36:24;5.97;;;5.37;;
2362;SDS011;64265;51.664;7.626;2022-10-31T07:38:50;7.80;;;5.33;;
2362;SDS011;64265;51.664;7.626;2022-10-31T07:41:17;6.00;;;5.50;;
2362;SDS011;64265;51.664;7.626;2022-10-31T07:43:44;6.37;;;5.77;;
2362;SDS011;64265;51.664;7.626;2022-10-31T07:46:12;7.00;;;6.27;;
2362;SDS011;64265;51.664;7.626;2022-10-31T07:48:39;11.00;;;6.67;;
2362;SDS011;64265;51.664;7.626;2022-10-31T07:51:06;5.83;;;5.23;;
2362;SDS011;64265;51.664;7.626;2022-10-31T07:53:32;6.33;;;5.80;;
2362;SDS011;64265;51.664;7.626;2022-10-31T07:55:59;6.73;;;6.17;;
2362;SDS011;64265;51.664;7.626;2022-10-31T07:58:26;6.93;;;5.60;;
2362;SDS011;64265;51.664;7.626;2022-10-31T08:00:53;6.53;;;5.80;;
2362;SDS011;64265;51.664;7.626;2022-10-31T08:03:21;6.30;;;5.70;;
2362;SDS011;64265;51.664;7.626;2022-10-31T08:05:47;8.60;;;6.00;;
2362;SDS011;64265;51.664;7.626;2022-10-31T08:08:14;10.20;;;6.07;;
2362;SDS011;64265;51.664;7.626;2022-10-31T08:10:41;6.63;;;6.03;;
2362;SDS011;64265;51.664;7.626;2022-10-31T08:13:10;7.00;;;6.30;;
2362;SDS011;64265;51.664;7.626;2022-10-31T08:15:38;7.07;;;6.37;;
2362;SDS011;64265;51.664;7.626;2022-10-31T08:18:07;6.37;;;5.60;;
2362;SDS011;64265;51.664;7.626;2022-10-31T08:20:38;6.20;;;5.60;;
2362;SDS011;64265;51.664;7.626;2022-10-31T08:23:06;7.30;;;5.50;;
2362;SDS011;64265;51.664;7.626;2022-10-31T08:25:34;6.30;;;5.70;;
2362;SDS011;64265;51.664;7.626;2022-10-31T08:28:01;7.47;;;5.93;;
2362;SDS011;64265;51.664;7.626;2022-10-31T08:30:29;8.70;;;5.70;;
2362;SDS011;64265;51.664;7.626;2022-10-31T08:33:01;7.83;;;5.80;;
2362;SDS011;64265;51.664;7.626;2022-10-31T08:35:29;6.43;;;5.80;;
2362;SDS011;64265;51.664;7.626;2022-10-31T08:37:57;6.00;;;5.40;;
2362;SDS011;64265;51.664;7.626;2022-10-31T08:40:24;6.67;;;6.07;;
2362;SDS011;64265;51.664;7.626;2022-10-31T08:42:55;6.53;;;5.80;;
2362;SDS011;64265;51.664;7.626;2022-10-31T08:45:23;7.47;;;5.00;;
2362;SDS011;64265;51.664;7.626;2022-10-31T08:47:50;7.03;;;6.43;;
2362;SDS011;64265;51.664;7.626;2022-10-31T08:50:17;7.30;;;5.90;;
2362;SDS011;64265;51.664;7.626;2022-10-31T08:52:44;6.07;;;5.37;;
2362;SDS011;64265;51.664;7.626;2022-10-31T08:55:13;6.60;;;5.83;;
2362;SDS011;64265;51.664;7.626;2022-10-31T08:57:40;6.47;;;4.97;;
2362;SDS011;64265;51.664;7.626;2022-10-31T09:00:07;5.43;;;4.77;;
2362;SDS011;64265;51.664;7.626;2022-10-31T09:02:34;6.57;;;5.63;;
2362;SDS011;64265;51.664;7.626;2022-10-31T09:05:02;5.50;;;4.67;;
2362;SDS011;64265;51.664;7.626;2022-10-31T09:07:28;6.90;;;5.13;;
2362;SDS011;64265;51.664;7.626;2022-10-31T09:09:55;11.30;;;5.53;;
2362;SDS011;64265;51.664;7.626;2022-10-31T09:12:23;7.33;;;4.67;;
2362;SDS011;64265;51.664;7.626;2022-10-31T09:14:50;6.00;;;4.50;;
2362;SDS011;64265;51.664;7.626;2022-10-31T09:17:17;6.20;;;5.60;;
2362;SDS011;64265;51.664;7.626;2022-10-31T09:19:44;10.10;;;6.03;;
2362;SDS011;64265;51.664;7.626;2022-10-31T09:22:10;10.43;;;5.80;;
2362;SDS011;64265;51.664;7.626;2022-10-31T09:24:37;13.60;;;6.50;;
2362;SDS011;64265;51.664;7.626;2022-10-31T09:27:04;8.37;;;6.30;;
2362;SDS011;64265;51.664;7.626;2022-10-31T09:29:32;12.97;;;6.33;;
2362;SDS011;64265;51.664;7.626;2022-10-31T09:31:58;13.50;;;7.03;;
2362;SDS011;64265;51.664;7.626;2022-10-31T09:34:25;14.07;;;8.97;;
2362;SDS011;64265;51.664;7.626;2022-10-31T09:36:52;12.73;;;7.80;;
2362;SDS011;64265;51.664;7.626;2022-10-31T09:39:19;9.90;;;7.00;;
2362;SDS011;64265;51.664;7.626;2022-10-31T09:41:55;8.37;;;6.70;;
2362;SDS011;64265;51.664;7.626;2022-10-31T09:44:33;10.00;;;7.63;;
2362;SDS011;64265;51.664;7.626;2022-10-31T09:47:10;11.20;;;7.20;;
2362;SDS011;64265;51.664;7.626;2022-10-31T09:49:51;13.90;;;8.23;;
2362;SDS011;64265;51.664;7.626;2022-10-31T09:52:29;13.00;;;9.03;;
2362;SDS011;64265;51.664;7.626;2022-10-31T09:54:58;14.97;;;8.93;;
2362;SDS011;64265;51.664;7.626;2022-10-31T09:57:28;14.73;;;7.73;;
2362;SDS011;64265;51.664;7.626;2022-10-31T09:59:59;12.10;;;7.63;;
2362;SDS011;64265;51.664;7.626;2022-10-31T10:02:30;9.70;;;6.50;;
2362;SDS011;64265;51.664;7.626;2022-10-31T10:05:03;11.80;;;6.13;;
2362;SDS011;64265;51.664;7.626;2022-10-31T10:07:34;10.93;;;7.03;;
2362;SDS011;64265;51.664;7.626;2022-10-31T10:10:12;8.97;;;6.00;;
2362;SDS011;64265;51.664;7.626;2022-10-31T10:12:44;11.67;;;6.43;;
2362;SDS011;64265;51.664;7.626;2022-10-31T10:15:26;6.87;;;6.20;;
2362;SDS011;64265;51.664;7.626;2022-10-31T10:18:02;11.47;;;6.03;;
2362;SDS011;64265;51.664;7.626;2022-10-31T10:20:35;7.60;;;6.77;;
2362;SDS011;64265;51.664;7.626;2022-10-31T10:23:16;9.43;;;5.83;;
2362;SDS011;64265;51.664;7.626;2022-10-31T10:25:53;8.30;;;5.50;;
2362;SDS011;64265;51.664;7.626;2022-10-31T10:28:29;11.43;;;5.00;;
2362;SDS011;64265;51.664;7.626;2022-10-31T10:31:05;10.17;;;5.50;;
2362;SDS011;64265;51.664;7.626;2022-10-31T10:33:35;10.27;;;5.73;;
2362;SDS011;64265;51.664;7.626;2022-10-31T10:36:06;17.10;;;5.37;;
2362;SDS011;64265;51.664;7.626;2022-10-31T10:38:39;8.90;;;5.83;;
2362;SDS011;64265;51.664;7.626;2022-10-31T10:41:16;11.87;;;4.63;;
2362;SDS011;64265;51.664;7.626;2022-10-31T10:43:44;4.60;;;4.07;;
2362;SDS011;64265;51.664;7.626;2022-10-31T10:46:15;7.07;;;5.03;;
2362;SDS011;64265;51.664;7.626;2022-10-31T10:49:04;6.50;;;4.50;;
2362;SDS011;64265;51.664;7.626;2022-10-31T10:51:44;6.40;;;4.47;;
2362;SDS011;64265;51.664;7.626;2022-10-31T10:54:21;8.47;;;5.30;;
2362;SDS011;64265;51.664;7.626;2022-10-31T10:57:00;5.70;;;4.40;;
2362;SDS011;64265;51.664;7.626;2022-10-31T10:59:36;4.73;;;4.33;;
2362;SDS011;64265;51.664;7.626;2022-10-31T11:02:08;8.83;;;4.53;;
2362;SDS011;64265;51.664;7.626;2022-10-31T11:04:43;7.50;;;5.63;;
2362;SDS011;64265;51.664;7.626;2022-10-31T11:07:13;8.40;;;5.40;;
2362;SDS011;64265;51.664;7.626;2022-10-31T11:09:40;7.07;;;5.10;;
2362;SDS011;64265;51.664;7.626;2022-10-31T11:12:07;7.33;;;5.40;;
2362;SDS011;64265;51.664;7.626;2022-10-31T11:14:36;13.47;;;5.00;;
2362;SDS011;64265;51.664;7.626;2022-10-31T11:17:17;6.10;;;5.13;;
2362;SDS011;64265;51.664;7.626;2022-10-31T11:19:59;5.73;;;5.10;;
2362;SDS011;64265;51.664;7.626;2022-10-31T11:22:28;7.43;;;5.30;;
2362;SDS011;64265;51.664;7.626;2022-10-31T11:24:55;8.20;;;5.50;;
2362;SDS011;64265;51.664;7.626;2022-10-31T11:27:23;5.93;;;5.37;;
2362;SDS011;64265;51.664;7.626;2022-10-31T11:29:51;7.87;;;4.70;;
2362;SDS011;64265;51.664;7.626;2022-10-31T11:32:21;7.80;;;4.43;;
2362;SDS011;64265;51.664;7.626;2022-10-31T11:34:50;8.93;;;5.03;;
2362;SDS011;64265;51.664;7.626;2022-10-31T11:37:20;7.77;;;4.83;;
2362;SDS011;64265;51.664;7.626;2022-10-31T11:39:49;11.73;;;5.27;;
2362;SDS011;64265;51.664;7.626;2022-10-31T11:42:19;5.00;;;4.50;;
2362;SDS011;64265;51.664;7.626;2022-10-31T11:44:48;5.97;;;4.30;;
2362;SDS011;64265;51.664;7.626;2022-10-31T11:47:16;9.03;;;4.20;;
2362;SDS011;64265;51.664;7.626;2022-10-31T11:49:47;6.93;;;4.43;;
2362;SDS011;64265;51.664;7.626;2022-10-31T11:52:15;6.90;;;5.07;;
2362;SDS011;64265;51.664;7.626;2022-10-31T11:54:45;7.70;;;4.53;;
2362;SDS011;64265;51.664;7.626;2022-10-31T11:57:21;10.17;;;4.93;;
2362;SDS011;64265;51.664;7.626;2022-10-31T11:59:50;10.77;;;5.50;;
2362;SDS011;64265;51.664;7.626;2022-10-31T12:02:19;8.70;;;5.40;;
2362;SDS011;64265;51.664;7.626;2022-10-31T12:04:49;10.43;;;6.60;;
2362;SDS011;64265;51.664;7.626;2022-10-31T12:07:20;7.63;;;5.30;;
2362;SDS011;64265;51.664;7.626;2022-10-31T12:09:48;7.20;;;5.70;;
2362;SDS011;64265;51.664;7.626;2022-10-31T12:15:31;12.67;;;6.00;;
2362;SDS011;64265;51.664;7.626;2022-10-31T12:18:03;6.47;;;5.03;;
2362;SDS011;64265;51.664;7.626;2022-10-31T12:20:56;6.00;;;5.13;;
2362;SDS011;64265;51.664;7.626;2022-10-31T12:23:36;5.97;;;5.40;;
2362;SDS011;64265;51.664;7.626;2022-10-31T12:26:13;5.30;;;4.77;;
2362;SDS011;64265;51.664;7.626;2022-10-31T12:28:51;5.17;;;4.30;;
2362;SDS011;64265;51.664;7.626;2022-10-31T12:31:32;8.10;;;5.13;;
2362;SDS011;64265;51.664;7.626;2022-10-31T12:34:21;7.53;;;5.13;;
2362;SDS011;64265;51.664;7.626;2022-10-31T12:37:12;7.03;;;4.93;;
2362;SDS011;64265;51.664;7.626;2022-10-31T12:39:50;7.90;;;5.90;;
2362;SDS011;64265;51.664;7.626;2022-10-31T12:42:22;6.10;;;5.23;;
2362;SDS011;64265;51.664;7.626;2022-10-31T12:45:09;8.03;;;5.63;;
2362;SDS011;64265;51.664;7.626;2022-10-31T12:47:54;7.90;;;5.30;;
2362;SDS011;64265;51.664;7.626;2022-10-31T12:50:35;6.20;;;5.60;;
2362;SDS011;64265;51.664;7.626;2022-10-31T12:53:23;5.97;;;5.37;;
2362;SDS011;64265;51.664;7.626;2022-10-31T12:56:16;5.63;;;4.93;;
2362;SDS011;64265;51.664;7.626;2022-10-31T12:58:54;9.13;;;6.57;;
2362;SDS011;64265;51.664;7.626;2022-10-31T13:01:28;11.00;;;6.50;;
2362;SDS011;64265;51.664;7.626;2022-10-31T13:04:01;8.67;;;6.60;;
2362;SDS011;64265;51.664;7.626;2022-10-31T13:06:32;11.30;;;7.30;;
2362;SDS011;64265;51.664;7.626;2022-10-31T13:09:05;7.07;;;6.13;;
2362;SDS011;64265;51.664;7.626;2022-10-31T13:11:35;11.53;;;6.10;;
2362;SDS011;64265;51.664;7.626;2022-10-31T13:14:05;8.43;;;6.97;;
2362;SDS011;64265;51.664;7.626;2022-10-31T13:16:36;10.97;;;7.37;;
2362;SDS011;64265;51.664;7.626;2022-10-31T13:19:09;7.57;;;6.37;;
2362;SDS011;64265;51.664;7.626;2022-10-31T13:21:41;12.37;;;6.03;;
2362;SDS011;64265;51.664;7.626;2022-10-31T13:24:22;7.73;;;6.00;;
2362;SDS011;64265;51.664;7.626;2022-10-31T13:26:53;11.83;;;6.20;;
2362;SDS011;64265;51.664;7.626;2022-10-31T13:29:23;6.43;;;5.80;;
2362;SDS011;64265;51.664;7.626;2022-10-31T13:31:54;7.53;;;5.57;;
2362;SDS011;64265;51.664;7.626;2022-10-31T13:34:23;7.20;;;5.60;;
2362;SDS011;64265;51.664;7.626;2022-10-31T13:36:56;7.10;;;4.80;;
2362;SDS011;64265;51.664;7.626;2022-10-31T13:39:36;8.73;;;6.50;;
2362;SDS011;64265;51.664;7.626;2022-10-31T13:42:12;6.00;;;4.83;;
2362;SDS011;64265;51.664;7.626;2022-10-31T13:44:43;8.50;;;5.40;;
2362;SDS011;64265;51.664;7.626;2022-10-31T13:47:23;6.67;;;6.07;;
2362;SDS011;64265;51.664;7.626;2022-10-31T13:50:02;7.07;;;5.57;;
2362;SDS011;64265;51.664;7.626;2022-10-31T13:52:31;5.70;;;5.10;;
2362;SDS011;64265;51.664;7.626;2022-10-31T13:54:59;7.77;;;6.43;;
2362;SDS011;64265;51.664;7.626;2022-10-31T13:57:29;6.10;;;5.50;;
2362;SDS011;64265;51.664;7.626;2022-10-31T13:59:59;7.73;;;5.63;;
2362;SDS011;64265;51.664;7.626;2022-10-31T14:02:29;6.50;;;4.57;;
2362;SDS011;64265;51.664;7.626;2022-10-31T14:04:58;5.40;;;4.90;;
2362;SDS011;64265;51.664;7.626;2022-10-31T14:07:26;6.63;;;5.57;;
2362;SDS011;64265;51.664;7.626;2022-10-31T14:09:56;5.90;;;4.90;;
2362;SDS011;64265;51.664;7.626;2022-10-31T14:12:28;7.93;;;5.40;;
2362;SDS011;64265;51.664;7.626;2022-10-31T14:14:59;5.30;;;4.80;;
2362;SDS011;64265;51.664;7.626;2022-10-31T14:17:31;5.63;;;4.83;;
2362;SDS011;64265;51.664;7.626;2022-10-31T14:20:21;6.23;;;5.63;;
2362;SDS011;64265;51.664;7.626;2022-10-31T14:22:57;6.17;;;5.60;;
2362;SDS011;64265;51.664;7.626;2022-10-31T14:25:30;8.67;;;7.13;;
2362;SDS011;64265;51.664;7.626;2022-10-31T14:28:00;5.53;;;5.03;;
2362;SDS011;64265;51.664;7.626;2022-10-31T14:30:29;6.07;;;5.30;;
2362;SDS011;64265;51.664;7.626;2022-10-31T14:32:57;7.33;;;5.93;;
2362;SDS011;64265;51.664;7.626;2022-10-31T14:35:28;6.00;;;5.40;;
2362;SDS011;64265;51.664;7.626;2022-10-31T14:38:10;6.27;;;5.70;;
2362;SDS011;64265;51.664;7.626;2022-10-31T14:40:52;5.53;;;5.03;;
2362;SDS011;64265;51.664;7.626;2022-10-31T14:43:41;6.77;;;6.10;;
2362;SDS011;64265;51.664;7.626;2022-10-31T14:46:30;5.50;;;5.00;;
2362;SDS011;64265;51.664;7.626;2022-10-31T14:49:09;6.50;;;5.80;;
2362;SDS011;64265;51.664;7.626;2022-10-31T14:51:47;6.20;;;5.60;;
2362;SDS011;64265;51.664;7.626;2022-10-31T14:54:15;7.10;;;5.60;;
2362;SDS011;64265;51.664;7.626;2022-10-31T14:56:48;8.30;;;5.70;;
2362;SDS011;64265;51.664;7.626;2022-10-31T14:59:20;5.77;;;5.27;;
2362;SDS011;64265;51.664;7.626;2022-10-31T15:01:56;8.53;;;6.27;;
2362;SDS011;64265;51.664;7.626;2022-10-31T15:04:26;8.07;;;6.50;;
2362;SDS011;64265;51.664;7.626;2022-10-31T15:06:57;5.50;;;4.97;;
2362;SDS011;64265;51.664;7.626;2022-10-31T15:09:28;6.80;;;6.10;;
2362;SDS011;64265;51.664;7.626;2022-10-31T15:11:55;6.10;;;5.50;;
2362;SDS011;64265;51.664;7.626;2022-10-31T15:14:26;6.53;;;6.00;;
2362;SDS011;64265;51.664;7.626;2022-10-31T15:16:55;7.70;;;5.30;;
2362;SDS011;64265;51.664;7.626;2022-10-31T15:19:24;6.53;;;5.80;;
2362;SDS011;64265;51.664;7.626;2022-10-31T15:21:53;5.20;;;4.80;;